createdAt,value
2018-03-17T00:00:26.078Z,10.92
2018-03-17T00:02:53.920Z,10.85
2018-03-17T00:05:21.486Z,10.74
2018-03-17T00:07:49.052Z,10.52
2018-03-17T00:10:16.654Z,10.41
2018-03-17T00:12:44.204Z,10.31
2018-03-17T00:15:11.758Z,10.23
2018-03-17T00:17:39.450Z,10.17
2018-03-17T00:20:07.017Z,10.19
2018-03-17T00:22:34.575Z,10.25
2018-03-17T00:25:02.176Z,10.30
2018-03-17T00:27:29.900Z,10.45
2018-03-17T00:29:57.451Z,10.51
2018-03-17T00:32:25.039Z,10.62
2018-03-17T00:34:52.671Z,10.78
2018-03-17T00:37:20.236Z,10.88
2018-03-17T00:39:47.834Z,10.92
2018-03-17T00:42:15.413Z,10.81
2018-03-17T00:44:42.965Z,10.85
2018-03-17T00:47:10.539Z,10.82
2018-03-17T00:49:38.101Z,10.78
2018-03-17T00:52:06.095Z,10.78
2018-03-17T00:54:33.768Z,10.77
2018-03-17T00:57:01.415Z,10.78
2018-03-17T00:59:29.002Z,10.87
2018-03-17T01:01:56.599Z,10.83
2018-03-17T01:04:24.222Z,10.82
2018-03-17T01:06:51.933Z,10.77
2018-03-17T01:09:19.547Z,10.71
2018-03-17T01:11:47.119Z,10.60
2018-03-17T01:14:14.872Z,10.54
2018-03-17T01:16:42.500Z,10.48
2018-03-17T01:19:10.057Z,10.45
2018-03-17T01:21:37.832Z,10.35
2018-03-17T01:24:05.498Z,10.25
2018-03-17T01:26:33.054Z,10.19
2018-03-17T01:29:00.647Z,10.31
2018-03-17T01:31:28.250Z,10.20
2018-03-17T01:33:55.825Z,10.10
2018-03-17T01:36:23.396Z,10.08
2018-03-17T01:38:50.985Z,10.00
2018-03-17T01:41:18.516Z,9.89
2018-03-17T01:43:46.071Z,9.84
2018-03-17T01:46:13.671Z,9.82
2018-03-17T01:48:41.240Z,9.71
2018-03-17T01:51:08.850Z,9.61
2018-03-17T01:53:36.484Z,9.61
2018-03-17T01:56:04.075Z,9.54
2018-03-17T01:58:31.683Z,9.44
2018-03-17T02:00:59.302Z,9.37
2018-03-17T02:03:26.872Z,9.37
2018-03-17T02:05:54.551Z,9.36
2018-03-17T02:08:22.132Z,9.42
2018-03-17T02:10:49.713Z,9.42
2018-03-17T02:13:17.267Z,9.43
2018-03-17T02:15:44.881Z,9.44
2018-03-17T02:18:12.532Z,9.41
2018-03-17T02:20:40.098Z,9.30
2018-03-17T02:23:07.858Z,9.24
2018-03-17T02:25:35.426Z,9.27
2018-03-17T02:28:03.203Z,9.30
2018-03-17T02:30:30.809Z,9.27
2018-03-17T02:32:58.376Z,9.27
2018-03-17T02:35:25.951Z,9.21
2018-03-17T02:37:53.636Z,9.34
2018-03-17T02:40:21.222Z,9.39
2018-03-17T02:42:48.962Z,9.48
2018-03-17T02:45:16.629Z,9.34
2018-03-17T02:47:44.280Z,9.26
2018-03-17T02:50:11.952Z,9.19
2018-03-17T02:52:39.566Z,9.03
2018-03-17T02:55:07.128Z,8.96
2018-03-17T02:57:34.739Z,8.85
2018-03-17T03:00:02.389Z,8.77
2018-03-17T03:02:29.946Z,8.68
2018-03-17T03:04:57.504Z,8.60
2018-03-17T03:07:25.108Z,8.63
2018-03-17T03:09:52.668Z,8.53
2018-03-17T03:12:20.292Z,8.54
2018-03-17T03:14:47.904Z,8.61
2018-03-17T03:17:16.022Z,8.54
2018-03-17T03:19:43.681Z,8.54
2018-03-17T03:22:11.275Z,8.47
2018-03-17T03:24:39.202Z,8.47
2018-03-17T03:27:06.767Z,8.44
2018-03-17T03:29:34.545Z,8.36
2018-03-17T03:32:02.222Z,8.30
2018-03-17T03:34:29.799Z,8.34
2018-03-17T03:36:57.412Z,8.30
2018-03-17T03:39:24.999Z,8.14
2018-03-17T03:41:52.572Z,8.08
2018-03-17T03:44:20.186Z,7.95
2018-03-17T03:46:47.976Z,7.94
2018-03-17T03:49:15.549Z,7.95
2018-03-17T03:51:43.311Z,7.86
2018-03-17T03:54:10.881Z,7.79
2018-03-17T03:56:38.570Z,7.86
2018-03-17T03:59:06.172Z,7.88
2018-03-17T04:01:33.958Z,7.78
2018-03-17T04:04:01.520Z,7.78
2018-03-17T04:06:29.270Z,7.77
2018-03-17T04:08:56.945Z,7.74
2018-03-17T04:11:24.544Z,7.69
2018-03-17T04:13:52.272Z,7.65
2018-03-17T04:16:19.841Z,7.62
2018-03-17T04:18:47.592Z,7.73
2018-03-17T04:21:15.241Z,7.71
2018-03-17T04:23:42.803Z,7.78
2018-03-17T04:26:10.418Z,7.78
2018-03-17T04:28:38.055Z,7.77
2018-03-17T04:31:05.627Z,7.84
2018-03-17T04:33:33.188Z,7.80
2018-03-17T04:36:00.940Z,7.75
2018-03-17T04:38:28.672Z,7.74
2018-03-17T04:40:56.340Z,7.79
2018-03-17T04:43:23.994Z,7.92
2018-03-17T04:45:51.551Z,8.07
2018-03-17T04:48:19.133Z,8.19
2018-03-17T04:50:46.720Z,8.32
2018-03-17T04:53:14.456Z,8.54
2018-03-17T04:55:42.026Z,8.62
2018-03-17T04:58:09.606Z,8.66
2018-03-17T05:00:37.159Z,8.76
2018-03-17T05:03:04.702Z,8.92
2018-03-17T05:05:32.294Z,9.03
2018-03-17T05:07:59.864Z,9.09
2018-03-17T05:10:27.471Z,9.20
2018-03-17T05:12:55.067Z,9.39
2018-03-17T05:15:22.628Z,9.53
2018-03-17T05:17:50.268Z,9.54
2018-03-17T05:20:17.880Z,9.47
2018-03-17T05:22:45.589Z,9.53
2018-03-17T05:25:13.251Z,9.72
2018-03-17T05:27:40.893Z,9.91
2018-03-17T05:30:08.573Z,10.08
2018-03-17T05:32:36.161Z,10.33
2018-03-17T05:35:03.877Z,10.36
2018-03-17T05:37:31.484Z,10.45
2018-03-17T05:39:59.211Z,10.48
2018-03-17T05:42:26.873Z,10.51
2018-03-17T05:44:54.480Z,10.68
2018-03-17T05:47:22.194Z,10.75
2018-03-17T05:49:49.875Z,10.79
2018-03-17T05:52:17.508Z,10.77
2018-03-17T05:54:45.139Z,10.88
2018-03-17T05:57:12.744Z,10.90
2018-03-17T05:59:40.328Z,10.78
2018-03-17T06:02:07.964Z,10.84
2018-03-17T06:04:35.589Z,10.95
2018-03-17T06:07:03.167Z,11.07
2018-03-17T06:09:30.735Z,11.14
2018-03-17T06:11:58.365Z,11.24
2018-03-17T06:14:25.965Z,11.19
2018-03-17T06:16:53.732Z,11.23
2018-03-17T06:19:21.342Z,11.32
2018-03-17T06:21:48.917Z,11.29
2018-03-17T06:24:16.528Z,11.31
2018-03-17T06:26:44.284Z,11.35
2018-03-17T06:29:11.853Z,11.32
2018-03-17T06:31:39.417Z,11.33
2018-03-17T06:34:07.033Z,11.36
2018-03-17T06:36:34.945Z,11.49
2018-03-17T06:39:02.524Z,11.67
2018-03-17T06:41:30.248Z,11.79
2018-03-17T06:43:57.835Z,11.89
2018-03-17T06:46:25.407Z,11.96
2018-03-17T06:48:53.254Z,11.92
2018-03-17T06:51:20.822Z,12.02
2018-03-17T06:53:48.751Z,12.15
2018-03-17T06:56:16.360Z,12.11
2018-03-17T06:58:43.928Z,12.19
2018-03-17T07:01:11.507Z,12.39
2018-03-17T07:03:39.127Z,12.76
2018-03-17T07:06:06.684Z,13.04
2018-03-17T07:08:34.253Z,13.40
2018-03-17T07:11:01.995Z,13.70
2018-03-17T07:13:29.661Z,14.21
2018-03-17T07:15:57.330Z,14.88
2018-03-17T07:18:24.969Z,15.60
2018-03-17T07:20:52.724Z,16.58
2018-03-17T07:23:20.297Z,17.40
2018-03-17T07:25:47.904Z,18.30
2018-03-17T07:28:15.484Z,19.04
2018-03-17T07:30:43.068Z,19.46
2018-03-17T07:33:10.687Z,18.98
2018-03-17T07:35:38.262Z,18.56
2018-03-17T07:38:05.862Z,18.13
2018-03-17T07:40:33.542Z,18.09
2018-03-17T07:43:01.114Z,17.83
2018-03-17T07:45:28.685Z,17.65
2018-03-17T07:47:56.301Z,17.70
2018-03-17T07:50:23.859Z,17.95
2018-03-17T07:52:51.461Z,18.19
2018-03-17T07:55:19.102Z,18.49
2018-03-17T07:57:46.776Z,18.05
2018-03-17T08:00:14.385Z,18.10
2018-03-17T08:02:42.002Z,18.32
2018-03-17T08:05:09.567Z,18.34
2018-03-17T08:07:37.218Z,18.50
2018-03-17T08:10:04.820Z,19.16
2018-03-17T08:12:32.405Z,19.40
2018-03-17T08:14:59.975Z,19.45
2018-03-17T08:17:27.584Z,20.14
2018-03-17T08:19:55.166Z,20.71
2018-03-17T08:22:22.858Z,21.19
2018-03-17T08:24:50.484Z,21.44
2018-03-17T08:27:18.072Z,22.42
2018-03-17T08:29:45.653Z,22.88
2018-03-17T08:32:13.298Z,23.45
2018-03-17T08:34:40.872Z,24.57
2018-03-17T08:37:08.457Z,25.91
2018-03-17T08:39:36.086Z,26.35
2018-03-17T08:42:03.656Z,26.41
2018-03-17T08:44:31.967Z,25.95
2018-03-17T08:46:59.649Z,25.65
2018-03-17T08:49:27.223Z,25.38
2018-03-17T08:51:54.800Z,25.47
2018-03-17T08:54:22.430Z,25.13
2018-03-17T08:56:50.240Z,25.44
2018-03-17T08:59:17.859Z,25.81
2018-03-17T09:01:45.443Z,26.78
2018-03-17T09:04:13.014Z,27.32
2018-03-17T09:06:40.611Z,29.07
2018-03-17T09:09:08.212Z,29.66
2018-03-17T09:11:35.802Z,28.31
2018-03-17T09:14:03.434Z,29.05
2018-03-17T09:16:31.001Z,28.94
2018-03-17T09:18:58.590Z,29.22
2018-03-17T09:21:26.253Z,28.29
2018-03-17T09:23:53.829Z,28.76
2018-03-17T09:26:21.580Z,28.44
2018-03-17T09:28:49.201Z,28.03
2018-03-17T09:31:16.868Z,26.52
2018-03-17T09:33:44.574Z,26.66
2018-03-17T09:36:12.178Z,26.63
2018-03-17T09:38:39.794Z,26.34
2018-03-17T09:41:07.373Z,26.69
2018-03-17T09:43:34.996Z,27.45
2018-03-17T09:46:02.599Z,27.47
2018-03-17T09:48:30.168Z,27.42
2018-03-17T09:50:57.784Z,27.62
2018-03-17T09:53:25.370Z,27.37
2018-03-17T09:55:52.928Z,27.94
2018-03-17T09:58:20.571Z,28.57
2018-03-17T10:00:49.029Z,28.57
2018-03-17T10:03:16.612Z,27.81
2018-03-17T10:05:44.213Z,26.26
2018-03-17T10:08:11.793Z,25.43
2018-03-17T10:10:39.377Z,25.09
2018-03-17T10:13:06.980Z,24.72
2018-03-17T10:15:34.543Z,24.81
2018-03-17T10:18:02.283Z,24.94
2018-03-17T10:20:29.888Z,24.67
2018-03-17T10:22:57.622Z,24.84
2018-03-17T10:25:25.268Z,24.40
2018-03-17T10:27:52.920Z,24.11
2018-03-17T10:30:20.485Z,23.82
2018-03-17T10:32:48.273Z,23.55
2018-03-17T10:35:15.882Z,23.43
2018-03-17T10:37:43.440Z,23.54
2018-03-17T10:40:11.067Z,23.23
2018-03-17T10:42:38.701Z,23.20
2018-03-17T10:45:06.307Z,23.21
2018-03-17T10:47:33.875Z,23.34
2018-03-17T10:50:01.475Z,23.32
2018-03-17T10:52:29.081Z,23.03
2018-03-17T10:54:56.819Z,22.74
2018-03-17T10:57:24.440Z,22.58
2018-03-17T10:59:52.062Z,22.61
2018-03-17T11:02:21.551Z,22.61
2018-03-17T11:04:49.308Z,22.55
2018-03-17T11:07:16.878Z,22.26
2018-03-17T11:09:44.474Z,22.33
2018-03-17T11:12:12.096Z,22.14
2018-03-17T11:14:39.800Z,21.69
2018-03-17T11:17:07.396Z,21.87
2018-03-17T11:19:35.077Z,21.82
2018-03-17T11:22:02.723Z,21.58
2018-03-17T11:24:30.282Z,21.52
2018-03-17T11:26:57.916Z,21.29
2018-03-17T11:29:25.510Z,21.11
2018-03-17T11:31:53.165Z,21.20
2018-03-17T11:34:20.829Z,21.39
2018-03-17T11:36:48.574Z,21.49
2018-03-17T11:39:16.539Z,21.60
2018-03-17T11:41:44.167Z,21.43
2018-03-17T11:44:11.898Z,21.16
2018-03-17T11:46:39.547Z,20.95
2018-03-17T11:49:07.145Z,21.11
2018-03-17T11:51:34.704Z,21.39
2018-03-17T11:54:02.262Z,21.36
2018-03-17T11:56:29.858Z,21.21
2018-03-17T11:58:57.455Z,21.41
2018-03-17T12:01:25.023Z,21.16
2018-03-17T12:03:52.632Z,21.40
2018-03-17T12:06:20.236Z,21.56
2018-03-17T12:08:47.918Z,21.31
2018-03-17T12:11:15.510Z,21.40
2018-03-17T12:13:43.229Z,21.34
2018-03-17T12:16:10.798Z,21.11
2018-03-17T12:18:38.395Z,21.12
2018-03-17T12:21:05.952Z,21.32
2018-03-17T12:23:33.899Z,21.29
2018-03-17T12:26:01.551Z,21.25
2018-03-17T12:28:29.133Z,21.51
2018-03-17T12:30:56.707Z,22.02
2018-03-17T12:33:24.522Z,22.13
2018-03-17T12:35:52.095Z,21.92
2018-03-17T12:38:19.878Z,22.13
2018-03-17T12:40:47.482Z,22.01
2018-03-17T12:43:15.180Z,22.76
2018-03-17T12:45:42.832Z,23.67
2018-03-17T12:48:10.429Z,24.32
2018-03-17T12:50:38.006Z,25.04
2018-03-17T12:53:05.586Z,25.78
2018-03-17T12:55:33.195Z,25.92
2018-03-17T12:58:00.760Z,25.93
2018-03-17T13:00:28.332Z,26.17
2018-03-17T13:02:55.922Z,24.90
2018-03-17T13:05:23.483Z,24.69
2018-03-17T13:07:51.041Z,25.47
2018-03-17T13:10:18.650Z,25.07
2018-03-17T13:12:46.233Z,23.95
2018-03-17T13:15:13.819Z,23.80
2018-03-17T13:17:41.456Z,24.24
2018-03-17T13:20:09.032Z,24.39
2018-03-17T13:22:48.460Z,24.79
2018-03-17T13:25:16.099Z,25.11
2018-03-17T13:27:55.389Z,24.79
2018-03-17T13:30:22.959Z,24.99
2018-03-17T13:32:56.532Z,25.22
2018-03-17T13:38:22.925Z,25.10
2018-03-17T13:40:50.723Z,25.32
2018-03-17T13:43:18.454Z,24.71
2018-03-17T13:45:46.065Z,24.37
2018-03-17T13:48:13.621Z,24.75
2018-03-17T13:50:41.225Z,24.13
2018-03-17T13:53:08.829Z,23.05
2018-03-17T13:55:36.399Z,22.82
2018-03-17T13:58:03.971Z,22.56
2018-03-17T14:00:31.586Z,22.32
2018-03-17T14:02:59.162Z,22.11
2018-03-17T14:05:26.742Z,21.91
2018-03-17T14:07:54.488Z,21.85
2018-03-17T14:10:22.058Z,21.73
2018-03-17T14:12:49.628Z,21.80
2018-03-17T14:15:17.246Z,21.85
2018-03-17T14:17:44.817Z,21.69
2018-03-17T14:20:12.389Z,21.76
2018-03-17T14:22:39.983Z,21.80
2018-03-17T14:25:07.815Z,21.70
2018-03-17T14:27:35.381Z,21.90
2018-03-17T14:30:02.997Z,21.79
2018-03-17T14:32:30.577Z,21.93
2018-03-17T14:34:58.157Z,21.81
2018-03-17T14:37:25.731Z,21.94
2018-03-17T14:39:53.293Z,21.88
2018-03-17T14:42:20.866Z,21.90
2018-03-17T14:44:48.470Z,21.87
2018-03-17T14:47:16.052Z,21.70
2018-03-17T14:49:43.615Z,21.75
2018-03-17T14:52:11.210Z,21.63
2018-03-17T14:54:38.763Z,21.77
2018-03-17T14:57:06.306Z,21.85
2018-03-17T14:59:33.896Z,21.84
2018-03-17T15:02:01.528Z,21.88
2018-03-17T15:04:29.104Z,21.89
2018-03-17T15:06:56.853Z,21.90
2018-03-17T15:09:24.480Z,21.85
2018-03-17T15:11:52.072Z,21.79
2018-03-17T15:14:19.677Z,21.74
2018-03-17T15:16:47.236Z,21.72
2018-03-17T15:19:14.800Z,21.63
2018-03-17T15:21:42.413Z,21.65
2018-03-17T15:24:09.987Z,21.74
2018-03-17T15:26:37.555Z,21.70
2018-03-17T15:29:05.176Z,21.63
2018-03-17T15:31:32.741Z,21.55
2018-03-17T15:34:00.322Z,21.48
2018-03-17T15:36:27.930Z,21.47
2018-03-17T15:38:55.490Z,21.46
2018-03-17T15:41:23.049Z,21.41
2018-03-17T15:43:50.636Z,21.25
2018-03-17T15:46:18.198Z,21.21
2018-03-17T15:48:45.971Z,21.14
2018-03-17T15:51:13.644Z,21.20
2018-03-17T15:53:41.404Z,21.07
2018-03-17T15:56:08.971Z,21.04
2018-03-17T15:58:36.576Z,20.93
2018-03-17T16:01:04.145Z,20.81
2018-03-17T16:03:31.710Z,20.76
2018-03-17T16:06:00.396Z,20.72
2018-03-17T16:08:28.172Z,20.61
2018-03-17T16:10:55.865Z,20.58
2018-03-17T16:13:23.465Z,20.45
2018-03-17T16:15:51.007Z,20.34
2018-03-17T16:18:18.569Z,20.30
2018-03-17T16:20:46.179Z,20.20
2018-03-17T16:23:13.928Z,20.10
2018-03-17T16:25:41.542Z,20.05
2018-03-17T16:28:09.140Z,19.97
2018-03-17T16:30:36.743Z,20.02
2018-03-17T16:33:04.312Z,19.94
2018-03-17T16:35:31.954Z,19.86
2018-03-17T16:37:59.515Z,19.75
2018-03-17T16:40:27.118Z,19.79
2018-03-17T16:42:54.742Z,19.77
2018-03-17T16:45:22.361Z,19.71
2018-03-17T16:47:50.383Z,19.66
2018-03-17T16:50:17.983Z,19.70
2018-03-17T16:52:45.553Z,19.62
2018-03-17T16:55:13.132Z,19.51
2018-03-17T16:57:40.737Z,19.42
2018-03-17T17:00:08.306Z,19.51
2018-03-17T17:02:35.931Z,19.49
2018-03-17T17:05:03.569Z,19.53
2018-03-17T17:07:31.134Z,19.42
2018-03-17T17:09:58.731Z,19.33
2018-03-17T17:12:26.338Z,19.23
2018-03-17T17:14:53.927Z,19.23
2018-03-17T17:17:21.528Z,19.18
2018-03-17T17:19:49.136Z,19.18
2018-03-17T17:22:16.706Z,19.07
2018-03-17T17:24:44.272Z,19.23
2018-03-17T17:27:11.868Z,19.26
2018-03-17T17:29:39.430Z,19.19
2018-03-17T17:32:07.010Z,19.25
2018-03-17T17:34:34.628Z,19.20
2018-03-17T17:37:02.211Z,19.22
2018-03-17T17:39:29.788Z,19.23
2018-03-17T17:41:57.410Z,19.19
2018-03-17T17:44:24.974Z,19.12
2018-03-17T17:46:52.537Z,19.03
2018-03-17T17:49:20.158Z,18.93
2018-03-17T17:51:47.766Z,18.91
2018-03-17T17:54:15.330Z,18.98
2018-03-17T17:56:42.925Z,18.91
2018-03-17T17:59:10.532Z,18.89
2018-03-17T18:01:38.106Z,18.85
2018-03-17T18:04:05.718Z,18.85
2018-03-17T18:06:33.288Z,18.80
2018-03-17T18:09:00.855Z,18.71
2018-03-17T18:11:28.481Z,18.61
2018-03-17T18:13:56.047Z,18.62
2018-03-17T18:16:23.614Z,18.54
2018-03-17T18:18:51.223Z,18.45
2018-03-17T18:21:18.784Z,18.43
2018-03-17T18:23:46.350Z,18.42
2018-03-17T18:26:13.966Z,18.44
2018-03-17T18:28:41.534Z,18.40
2018-03-17T18:31:09.099Z,18.31
2018-03-17T18:33:36.686Z,18.39
2018-03-17T18:36:04.248Z,18.28
2018-03-17T18:38:31.820Z,18.27
2018-03-17T18:40:59.433Z,18.15
2018-03-17T18:43:27.016Z,18.18
2018-03-17T18:45:54.584Z,18.08
2018-03-17T18:48:28.736Z,18.05
2018-03-17T18:50:56.359Z,18.04
2018-03-17T18:53:23.907Z,18.01
2018-03-17T18:55:51.493Z,18.01
2018-03-17T18:58:19.148Z,17.98
2018-03-17T19:00:46.706Z,17.92
2018-03-17T19:03:14.335Z,17.99
2018-03-17T19:05:41.942Z,18.03
2018-03-17T19:08:09.521Z,18.10
2018-03-17T19:10:37.108Z,18.19
2018-03-17T19:13:04.673Z,18.20
2018-03-17T19:15:32.233Z,18.10
2018-03-17T19:17:59.830Z,18.02
2018-03-17T19:20:27.390Z,17.97
2018-03-17T19:22:54.972Z,17.91
2018-03-17T19:25:22.579Z,17.78
2018-03-17T19:27:50.240Z,17.80
2018-03-17T19:30:17.857Z,17.86
2018-03-17T19:32:45.448Z,17.80
2018-03-17T19:35:13.021Z,17.81
2018-03-17T19:37:40.588Z,17.87
2018-03-17T19:40:08.361Z,17.92
2018-03-17T19:42:35.923Z,17.86
2018-03-17T19:45:03.484Z,17.78
2018-03-17T19:47:31.068Z,17.89
2018-03-17T19:49:58.633Z,17.90
2018-03-17T19:52:26.280Z,17.92
2018-03-17T19:54:53.869Z,17.96
2018-03-17T19:57:21.466Z,18.02
2018-03-17T19:59:49.051Z,17.97
2018-03-17T20:02:16.668Z,17.97
2018-03-17T20:04:44.220Z,18.08
2018-03-17T20:07:11.774Z,18.11
2018-03-17T20:09:39.359Z,18.07
2018-03-17T20:12:07.743Z,18.02
2018-03-17T20:14:35.309Z,18.05
2018-03-17T20:17:03.113Z,18.01
2018-03-17T20:19:30.711Z,18.04
2018-03-17T20:21:58.317Z,18.03
2018-03-17T20:24:26.064Z,17.98
2018-03-17T20:26:53.733Z,17.95
2018-03-17T20:29:21.300Z,17.90
2018-03-17T20:31:48.894Z,17.80
2018-03-17T20:34:16.452Z,17.71
2018-03-17T20:36:44.009Z,17.66
2018-03-17T20:39:11.636Z,17.61
2018-03-17T20:41:39.224Z,17.62
2018-03-17T20:44:06.793Z,17.62
2018-03-17T20:46:34.424Z,17.62
2018-03-17T20:49:02.079Z,17.57
2018-03-17T20:51:29.659Z,17.47
2018-03-17T20:53:57.273Z,17.45
2018-03-17T20:56:24.924Z,17.32
2018-03-17T20:58:52.592Z,17.39
2018-03-17T21:01:20.215Z,17.32
2018-03-17T21:03:47.769Z,17.18
2018-03-17T21:06:15.350Z,17.21
2018-03-17T21:08:42.964Z,17.28
2018-03-17T21:11:10.535Z,17.19
2018-03-17T21:13:38.117Z,17.20
2018-03-17T21:16:05.757Z,17.25
2018-03-17T21:18:33.338Z,17.22
2018-03-17T21:21:01.107Z,17.20
2018-03-17T21:23:28.711Z,17.23
2018-03-17T21:25:56.304Z,17.30
2018-03-17T21:28:23.873Z,17.21
2018-03-17T21:30:51.751Z,17.24
2018-03-17T21:33:19.407Z,17.29
2018-03-17T21:35:47.059Z,17.34
2018-03-17T21:38:14.658Z,17.35
2018-03-17T21:40:42.230Z,17.28
2018-03-17T21:43:09.844Z,17.21
2018-03-17T21:45:37.488Z,17.22
2018-03-17T21:48:05.076Z,17.31
2018-03-17T21:50:32.829Z,17.30
2018-03-17T21:53:00.433Z,17.22
2018-03-17T21:55:28.034Z,17.32
2018-03-17T21:57:55.794Z,17.36
2018-03-17T22:00:23.502Z,17.34
2018-03-17T22:02:51.134Z,17.24
2018-03-17T22:05:18.678Z,17.27
2018-03-17T22:07:46.486Z,17.39
2018-03-17T22:10:14.048Z,17.47
2018-03-17T22:12:41.638Z,17.33
2018-03-17T22:15:09.255Z,17.31
2018-03-17T22:17:36.817Z,17.30
2018-03-17T22:20:04.436Z,17.36
2018-03-17T22:22:32.128Z,17.38
2018-03-17T22:24:59.695Z,17.32
2018-03-17T22:27:27.256Z,17.36
2018-03-17T22:29:54.864Z,17.46
2018-03-17T22:32:22.426Z,17.42
2018-03-17T22:34:50.121Z,17.36
2018-03-17T22:37:17.724Z,17.33
2018-03-17T22:39:45.452Z,17.34
2018-03-17T22:42:13.012Z,17.31
2018-03-17T22:44:40.783Z,17.29
2018-03-17T22:47:08.340Z,17.33
2018-03-17T22:49:36.121Z,17.16
2018-03-17T22:52:03.720Z,17.20
2018-03-17T22:54:31.426Z,17.20
2018-03-17T22:56:59.107Z,17.37
2018-03-17T22:59:26.716Z,17.48
2018-03-17T23:01:54.413Z,17.44
2018-03-17T23:04:22.084Z,17.44
2018-03-17T23:06:49.679Z,17.41
2018-03-17T23:09:17.248Z,17.32
2018-03-17T23:11:44.813Z,17.38
2018-03-17T23:14:12.527Z,17.42
2018-03-17T23:16:40.112Z,17.60
2018-03-17T23:19:07.721Z,17.56
2018-03-17T23:21:35.338Z,17.56
2018-03-17T23:24:02.967Z,17.49
2018-03-17T23:26:30.645Z,17.48
2018-03-17T23:28:58.285Z,17.58
2018-03-17T23:31:25.864Z,17.64
2018-03-17T23:33:53.629Z,17.88
2018-03-17T23:36:21.274Z,17.93
2018-03-17T23:38:48.955Z,17.92
2018-03-17T23:41:16.554Z,17.98
2018-03-17T23:43:44.189Z,17.98
2018-03-17T23:46:11.796Z,18.07
2018-03-17T23:48:39.410Z,18.05
2018-03-17T23:51:07.057Z,18.22
2018-03-17T23:53:34.662Z,18.23
2018-03-17T23:56:02.278Z,18.31
2018-03-17T23:58:30.051Z,18.22
